Time;durP1;ratioP1;P1;durP2;ratioP2;P2;SDS_P1;SDS_P2;PMS_P1;PMS_P2;Temp;Humidity;BMP_temperature;BMP_pressure;BME280_temperature;BME280_humidity;BME280_pressure;Samples;Min_cycle;Max_cycle;Signal;HPM_P1;HPM_P2
2022/02/08 00:02:02;;;;;;;15.53;13.93;;;;;;;11.39;62.22;98669.66;1725268;80;21077;-68
2022/02/08 00:04:25;;;;;;;14.80;13.20;;;;;;;11.38;62.20;98677.34;1723697;82;21032;-66
2022/02/08 00:06:51;;;;;;;15.28;13.68;;;;;;;11.37;62.16;98675.17;1731238;80;21042;-67
2022/02/08 00:09:19;;;;;;;14.63;13.00;;;;;;;11.36;62.14;98678.87;1737142;80;21137;-68
2022/02/08 00:11:46;;;;;;;14.10;12.25;;;;;;;11.34;62.10;98679.58;1735689;80;21031;-67
2022/02/08 00:14:12;;;;;;;16.93;13.25;;;;;;;11.34;62.07;98679.58;1735931;80;21047;-67
2022/02/08 00:16:39;;;;;;;15.75;13.72;;;;;;;11.33;62.02;98689.89;1735201;80;21197;-67
2022/02/08 00:19:05;;;;;;;14.47;12.78;;;;;;;11.33;61.98;98694.39;1745159;80;21596;-67
2022/02/08 00:21:32;;;;;;;14.05;12.35;;;;;;;11.33;61.95;98697.05;1737141;80;21099;-67
2022/02/08 00:23:58;;;;;;;14.40;12.63;;;;;;;11.32;61.90;98706.03;1742782;82;21085;-68
2022/02/08 00:26:24;;;;;;;14.25;12.75;;;;;;;11.30;61.87;98704.08;1739253;80;22355;-67
2022/02/08 00:28:51;;;;;;;13.03;11.60;;;;;;;11.30;61.82;98705.41;1735017;80;21006;-67
2022/02/08 00:31:18;;;;;;;13.55;11.57;;;;;;;11.31;61.77;98712.38;1729294;80;21066;-68
2022/02/08 00:33:45;;;;;;;11.85;10.58;;;;;;;11.30;61.74;98710.73;1722688;80;21125;-66
2022/02/08 00:36:11;;;;;;;12.98;11.57;;;;;;;11.30;61.69;98718.70;1733404;80;21066;-67
2022/02/08 00:38:38;;;;;;;12.80;11.45;;;;;;;11.29;61.65;98716.56;1731615;80;21074;-67
2022/02/08 00:41:05;;;;;;;13.08;11.70;;;;;;;11.29;61.63;98717.08;1729488;80;21125;-67
2022/02/08 00:46:19;;;;;;;12.50;10.75;;;;;;;11.27;61.55;98722.59;1735237;80;21495;-67
2022/02/08 00:48:47;;;;;;;12.82;10.72;;;;;;;11.26;61.51;98728.09;1730824;80;21024;-67
2022/02/08 00:51:10;;;;;;;11.88;10.60;;;;;;;11.25;61.51;98731.80;1736124;80;21030;-67
2022/02/08 00:53:37;;;;;;;12.90;10.90;;;;;;;11.24;61.46;98728.81;1732343;82;21105;-67
2022/02/08 00:56:04;;;;;;;12.15;10.23;;;;;;;11.21;61.47;98730.84;1743349;82;21042;-67
2022/02/08 00:58:30;;;;;;;12.05;10.80;;;;;;;11.21;61.42;98732.17;1727662;82;21141;-67
2022/02/08 01:00:58;;;;;;;11.18;9.80;;;;;;;11.21;61.41;98734.02;1738584;80;21036;-67
2022/02/08 01:03:24;;;;;;;11.55;10.35;;;;;;;11.20;61.35;98739.01;1722251;80;21019;-68
2022/02/08 01:06:02;;;;;;;12.23;10.35;;;;;;;11.19;61.34;98736.87;1724870;80;21062;-67
2022/02/08 01:08:22;;;;;;;10.00;9.00;;;;;;;11.19;61.29;98738.72;1730848;80;21070;-66
2022/02/08 01:10:48;;;;;;;10.35;9.33;;;;;;;11.18;61.30;98742.38;1728351;80;21148;-68
2022/02/08 01:13:14;;;;;;;11.18;9.15;;;;;;;11.17;61.25;98746.06;1737551;80;21503;-66
2022/02/08 01:15:41;;;;;;;11.65;9.75;;;;;;;11.17;61.22;98747.39;1735146;82;21033;-67
2022/02/08 01:18:08;;;;;;;10.88;9.58;;;;;;;11.16;61.20;98755.89;1743331;81;21066;-67
2022/02/08 01:20:38;;;;;;;10.98;9.73;;;;;;;11.15;61.16;98752.91;1743331;81;21541;-67
2022/02/08 01:23:08;;;;;;;10.43;9.25;;;;;;;11.15;61.14;98762.20;1740743;81;21046;-67
2022/02/08 01:25:45;;;;;;;9.50;8.43;;;;;;;11.13;61.09;98758.92;1749963;81;21487;-67
2022/02/08 01:28:15;;;;;;;9.95;8.65;;;;;;;11.12;61.08;98767.90;1742335;81;21139;-66
2022/02/08 01:30:46;;;;;;;9.38;8.23;;;;;;;11.12;61.05;98772.41;1742512;81;21526;-66
2022/02/08 01:38:16;;;;;;;9.13;8.18;;;;;;;11.09;61.00;98782.93;1745375;81;21699;-66
2022/02/08 01:41:30;;;;;;;9.00;7.60;;;;;;;11.09;60.97;98778.94;1754538;81;21073;-66
2022/02/08 01:45:52;;;;;;;9.43;8.30;;;;;;;11.08;60.92;98781.78;1673599;85;21613;-67
2022/02/08 01:50:56;;;;;;;9.95;8.45;;;;;;;11.05;60.84;98789.66;1709460;83;21093;-67
2022/02/08 01:53:22;;;;;;;8.80;7.87;;;;;;;11.05;60.84;98792.31;1699873;83;21558;-66
2022/02/08 01:55:50;;;;;;;8.68;7.78;;;;;;;11.05;60.80;98788.80;1720062;83;21015;-67
2022/02/08 01:58:18;;;;;;;7.78;6.85;;;;;;;11.03;60.80;98785.04;1708946;83;21578;-66
2022/02/08 02:00:45;;;;;;;7.80;7.00;;;;;;;11.03;60.75;98790.36;1712638;83;21140;-68
2022/02/08 02:03:13;;;;;;;9.10;8.13;;;;;;;11.02;60.76;98795.34;1696867;83;22078;-66
2022/02/08 02:05:40;;;;;;;7.95;7.08;;;;;;;11.02;60.72;98801.98;1710294;82;21042;-67
2022/02/08 02:08:07;;;;;;;8.15;7.35;;;;;;;11.01;60.71;98799.03;1708390;83;21101;-67
2022/02/08 02:10:36;;;;;;;8.73;7.53;;;;;;;11.00;60.69;98798.70;1706086;82;21548;-67
2022/02/08 02:13:09;;;;;;;8.85;7.30;;;;;;;11.00;60.65;98811.99;1702902;83;21116;-66
2022/02/08 02:15:35;;;;;;;9.10;7.37;;;;;;;10.97;60.64;98803.06;1700798;82;21086;-66
2022/02/08 02:18:01;;;;;;;6.62;6.03;;;;;;;10.96;60.63;98807.56;1714372;83;21963;-65
2022/02/08 02:20:31;;;;;;;8.48;7.12;;;;;;;10.96;60.60;98813.39;1711356;83;21082;-66
2022/02/08 02:22:57;;;;;;;7.47;6.50;;;;;;;10.96;60.58;98812.06;1711877;83;21073;-66
2022/02/08 02:25:29;;;;;;;7.90;6.92;;;;;;;10.96;60.55;98816.05;1712244;82;21151;-66
2022/02/08 02:27:58;;;;;;;8.68;6.65;;;;;;;10.95;60.51;98817.90;1707084;82;21089;-66
2022/02/08 02:30:26;;;;;;;7.55;6.25;;;;;;;10.94;60.49;98816.76;1709140;82;21042;-66
2022/02/08 02:32:54;;;;;;;6.87;6.17;;;;;;;10.94;60.46;98831.38;1713120;83;21089;-66
2022/02/08 02:35:21;;;;;;;7.35;6.62;;;;;;;10.94;60.47;98839.34;1714606;82;21052;-67
2022/02/08 02:37:48;;;;;;;6.90;6.20;;;;;;;10.92;60.45;98834.22;1674862;84;21082;-67
2022/02/08 02:40:17;;;;;;;6.97;6.28;;;;;;;10.92;60.40;98833.40;1728228;80;21018;-67
2022/02/08 02:42:44;;;;;;;7.37;6.40;;;;;;;10.91;60.40;98837.88;1742165;80;21601;-68
2022/02/08 02:45:11;;;;;;;6.67;5.85;;;;;;;10.90;60.36;98838.91;1730996;80;21042;-67
2022/02/08 02:47:38;;;;;;;8.10;6.85;;;;;;;10.89;60.36;98850.53;1729249;80;21093;-68
2022/02/08 02:50:09;;;;;;;7.78;6.33;;;;;;;10.90;60.33;98859.34;1736275;80;21324;-67
2022/02/08 02:52:37;;;;;;;6.95;6.10;;;;;;;10.89;60.29;98855.03;1721629;81;21277;-68
2022/02/08 02:55:05;;;;;;;6.35;5.75;;;;;;;10.89;60.28;98864.33;1686337;84;21088;-68
2022/02/08 02:57:31;;;;;;;6.45;5.85;;;;;;;10.87;60.27;98864.52;1698330;84;21033;-68
2022/02/08 03:00:13;;;;;;;6.20;5.60;;;;;;;10.87;60.24;98862.38;1674754;84;21092;-68
2022/02/08 03:02:53;;;;;;;5.92;5.40;;;;;;;10.76;60.22;98849.93;1737925;80;21340;-68
2022/02/08 03:18:59;;;;;;;6.97;5.83;;;;;;;10.79;60.13;98892.55;1740333;80;21054;-68
2022/02/08 03:21:25;;;;;;;5.85;5.22;;;;;;;10.79;60.13;98896.54;1739998;81;21539;-68
2022/02/08 03:23:54;;;;;;;6.22;5.62;;;;;;;10.78;60.11;98901.55;1725565;80;21080;-68
2022/02/08 03:26:20;;;;;;;6.15;5.40;;;;;;;10.76;60.11;98904.39;1735115;80;20999;-67
2022/02/08 03:28:51;;;;;;;6.70;5.65;;;;;;;10.76;60.09;98907.05;1721325;80;21149;-68
2022/02/08 03:31:25;;;;;;;6.05;5.25;;;;;;;10.75;60.08;98910.70;1739948;80;21082;-69
2022/02/08 03:33:52;;;;;;;6.12;5.28;;;;;;;10.74;60.06;98909.08;1740518;80;21069;-69
2022/02/08 03:36:19;;;;;;;5.95;5.35;;;;;;;10.75;60.05;98919.19;1743978;80;21033;-69
2022/02/08 03:38:59;;;;;;;6.75;5.83;;;;;;;10.74;60.03;98914.39;1745217;81;20996;-68
2022/02/08 03:41:16;;;;;;;5.45;4.90;;;;;;;10.74;60.02;98924.17;1708491;83;21141;-68
2022/02/08 03:43:46;;;;;;;5.83;5.22;;;;;;;10.75;59.97;98933.28;1704430;83;21041;-68
2022/02/08 03:46:16;;;;;;;5.30;4.80;;;;;;;10.73;59.96;98935.30;1719371;83;21084;-69
2022/02/08 03:48:43;;;;;;;5.53;4.87;;;;;;;10.73;59.95;98939.80;1673562;84;21115;-67
2022/02/08 03:51:16;;;;;;;6.70;5.28;;;;;;;10.72;59.93;98940.32;1707909;83;21060;-67
2022/02/08 03:53:47;;;;;;;5.58;4.95;;;;;;;10.71;59.92;98945.81;1700880;83;21093;-66
2022/02/08 03:56:20;;;;;;;6.08;4.90;;;;;;;10.70;59.90;98951.64;1721789;82;21453;-67
2022/02/08 03:58:46;;;;;;;5.03;4.40;;;;;;;10.70;59.86;98952.13;1723763;82;21489;-67
2022/02/08 04:01:42;;;;;;;5.10;4.42;;;;;;;10.71;59.84;98960.42;1717379;83;21010;-67
2022/02/08 04:04:01;;;;;;;5.45;4.80;;;;;;;10.70;59.85;98966.25;1714442;83;21524;-66
2022/02/08 04:06:13;;;;;;;5.50;4.72;;;;;;;10.70;59.81;98968.06;1709473;82;22014;-67
2022/02/08 04:08:39;;;;;;;4.87;4.37;;;;;;;10.69;59.79;98978.39;1720790;83;21145;-66
2022/02/08 04:11:08;;;;;;;5.92;4.83;;;;;;;10.68;59.79;98981.55;1712693;83;21041;-67
2022/02/08 04:13:45;;;;;;;6.12;4.67;;;;;;;10.67;59.76;98989.19;1719078;83;21060;-67
2022/02/08 04:16:47;;;;;;;5.45;4.45;;;;;;;10.67;59.74;98993.69;1718073;83;21013;-66
2022/02/08 04:32:26;;;;;;;4.60;4.03;;;;;;;10.63;59.67;99005.19;1698687;83;21541;-67
2022/02/08 04:42:44;;;;;;;4.92;4.30;;;;;;;10.58;59.61;99028.82;1714315;82;21003;-68
2022/02/08 04:45:21;;;;;;;4.08;3.67;;;;;;;10.59;59.59;99040.59;1700027;83;21169;-67
2022/02/08 04:47:47;;;;;;;4.92;4.42;;;;;;;10.59;59.58;99042.44;1705585;83;21036;-68
2022/02/08 04:50:10;;;;;;;4.83;3.92;;;;;;;10.58;59.57;99044.75;1700112;83;21561;-68
2022/02/08 04:52:37;;;;;;;4.37;3.70;;;;;;;10.57;59.54;99043.13;1711147;83;21070;-68
2022/02/08 05:35:59;;;;;;;6.28;4.40;;;;;;;10.80;66.83;99116.87;1712931;83;21076;-68
2022/02/08 05:46:48;;;;;;;6.92;3.80;;;;;;;10.76;65.65;99133.38;1711274;80;21489;-68
2022/02/08 05:48:50;;;;;;;6.42;4.78;;;;;;;10.75;65.41;99130.39;1734959;82;21042;-68
2022/02/08 05:51:22;;;;;;;5.72;3.67;;;;;;;10.73;65.17;99132.41;1703016;83;21205;-68
2022/02/08 05:53:46;;;;;;;5.67;3.65;;;;;;;10.71;64.99;99143.22;1704106;84;21019;-67
2022/02/08 05:56:15;;;;;;;6.55;4.17;;;;;;;10.70;64.78;99152.21;1688712;84;21046;-67
2022/02/08 05:58:43;;;;;;;7.28;3.70;;;;;;;10.69;64.58;99154.53;1701020;84;21038;-67
2022/02/08 06:01:10;;;;;;;4.50;3.77;;;;;;;10.70;64.42;99162.83;1706700;84;21089;-68
2022/02/08 06:03:40;;;;;;;5.17;3.75;;;;;;;10.68;64.24;99161.34;1700680;83;21139;-67
2022/02/08 06:06:07;;;;;;;6.47;3.62;;;;;;;10.68;64.05;99162.20;1707423;83;21029;-69
2022/02/08 06:08:33;;;;;;;4.55;3.70;;;;;;;10.68;63.89;99160.86;1709812;83;21050;-68
2022/02/08 06:11:12;;;;;;;5.60;3.85;;;;;;;10.67;63.74;99161.86;1711447;83;21362;-69
2022/02/08 06:13:30;;;;;;;5.58;3.92;;;;;;;10.66;63.59;99164.18;1686891;83;21053;-68
2022/02/08 06:16:04;;;;;;;6.47;3.80;;;;;;;10.67;63.46;99170.34;1696772;82;21239;-68
2022/02/08 06:18:31;;;;;;;4.45;3.90;;;;;;;10.66;63.32;99169.49;1718885;82;20990;-67
2022/02/08 06:20:58;;;;;;;5.47;3.50;;;;;;;10.66;63.20;99170.82;1706208;82;21580;-67
2022/02/08 06:23:25;;;;;;;4.67;3.95;;;;;;;10.65;63.06;99181.14;1686354;82;21043;-69
2022/02/08 06:25:53;;;;;;;5.83;3.67;;;;;;;10.66;62.96;99190.74;1727097;80;21522;-68
2022/02/08 06:28:22;;;;;;;4.35;3.30;;;;;;;10.65;62.86;99195.75;1747633;80;21141;-68
2022/02/08 06:30:48;;;;;;;4.60;3.05;;;;;;;10.65;62.73;99194.94;1734366;80;21506;-69
2022/02/08 06:33:15;;;;;;;5.85;3.40;;;;;;;10.65;62.62;99196.27;1737468;80;21093;-67
2022/02/08 06:35:42;;;;;;;4.25;3.42;;;;;;;10.64;62.52;99200.73;1728458;80;21074;-69
2022/02/08 06:38:11;;;;;;;4.03;3.30;;;;;;;10.64;62.43;99202.05;1745162;80;21493;-69
2022/02/08 06:40:38;;;;;;;4.30;3.50;;;;;;;10.65;62.32;99206.38;1753442;80;21339;-68
2022/02/08 06:43:06;;;;;;;3.98;3.05;;;;;;;10.64;62.23;99211.35;1739401;80;21528;-69
2022/02/08 06:45:33;;;;;;;4.60;2.92;;;;;;;10.63;62.16;99209.72;1745876;81;21017;-68
2022/02/08 06:48:02;;;;;;;4.17;3.17;;;;;;;10.63;62.07;99221.16;1745727;80;21026;-69
2022/02/08 06:50:28;;;;;;;4.83;3.60;;;;;;;10.63;61.96;99221.67;1745472;81;21033;-69
2022/02/08 06:52:54;;;;;;;4.67;3.50;;;;;;;10.63;61.89;99224.33;1746784;81;21042;-70
2022/02/08 06:55:24;;;;;;;6.40;4.03;;;;;;;10.63;61.81;99231.79;1742141;81;20987;-69
2022/02/08 06:58:03;;;;;;;8.38;4.08;;;;;;;10.63;61.99;99230.97;1756901;80;21049;-68
2022/02/08 07:00:36;;;;;;;8.90;4.22;;;;;;;10.62;62.68;99231.48;1754619;81;21013;-67
2022/02/08 07:02:59;;;;;;;9.10;4.87;;;;;;;10.59;62.88;99237.14;1735167;81;21572;-69
2022/02/08 07:05:25;;;;;;;6.05;4.03;;;;;;;10.59;62.90;99242.97;1743425;81;21181;-69
2022/02/08 07:07:53;;;;;;;7.42;4.00;;;;;;;10.57;62.88;99244.98;1756541;81;21077;-70
2022/02/08 07:10:19;;;;;;;7.12;3.62;;;;;;;10.56;62.85;99246.78;1731557;81;21093;-70
2022/02/08 07:12:46;;;;;;;6.65;3.83;;;;;;;10.54;62.77;99254.11;1704654;82;21182;-69
2022/02/08 07:15:14;;;;;;;7.33;4.28;;;;;;;10.54;62.72;99248.80;1708527;82;21120;-68
2022/02/08 07:17:42;;;;;;;7.50;3.90;;;;;;;10.53;62.64;99252.48;1717648;82;21034;-69
2022/02/08 07:20:10;;;;;;;5.37;3.47;;;;;;;10.54;62.55;99257.28;1719118;82;21018;-70
2022/02/08 07:22:37;;;;;;;5.40;3.47;;;;;;;10.53;62.48;99263.61;1720163;82;21118;-69
2022/02/08 07:25:05;;;;;;;6.58;3.92;;;;;;;10.52;62.40;99265.93;1702521;82;21084;-69
2022/02/08 07:27:31;;;;;;;7.85;3.72;;;;;;;10.53;62.32;99272.91;1695474;83;21037;-70
2022/02/08 07:29:58;;;;;;;6.40;3.67;;;;;;;10.53;62.24;99274.23;1712851;83;21137;-70
2022/02/08 07:32:32;;;;;;;5.53;3.65;;;;;;;10.53;62.15;99282.20;1693123;82;21146;-69
2022/02/08 07:37:46;;;;;;;4.80;3.33;;;;;;;10.54;61.99;99287.82;1713990;82;21073;-71
2022/02/08 07:40:06;;;;;;;4.67;3.40;;;;;;;10.53;61.92;99287.52;1743568;81;21029;-73
2022/02/08 07:42:31;;;;;;;5.08;3.90;;;;;;;10.53;61.81;99293.64;1748889;82;22162;-72
2022/02/08 07:44:59;;;;;;;7.20;3.52;;;;;;;10.54;61.79;99295.79;1750153;81;21221;-72
2022/02/08 07:47:26;;;;;;;4.58;3.17;;;;;;;10.54;61.71;99303.25;1713100;82;21013;-72
2022/02/08 07:49:54;;;;;;;5.87;3.67;;;;;;;10.56;61.62;99312.38;1715395;83;21589;-72
2022/02/08 07:52:21;;;;;;;5.42;3.25;;;;;;;10.56;61.57;99315.03;1751303;81;21509;-72
2022/02/08 07:54:47;;;;;;;5.85;3.70;;;;;;;10.56;61.49;99320.34;1736697;81;21079;-73
2022/02/08 07:57:14;;;;;;;4.50;3.02;;;;;;;10.56;61.41;99321.67;1699906;83;21061;-73
2022/02/08 07:59:40;;;;;;;4.92;3.47;;;;;;;10.57;61.34;99325.98;1687382;83;21615;-72
2022/02/08 08:02:07;;;;;;;5.10;3.20;;;;;;;10.58;61.28;99327.63;1744334;82;21002;-73
2022/02/08 08:04:34;;;;;;;7.45;3.75;;;;;;;10.58;61.21;99331.61;1745166;82;21573;-72
2022/02/08 08:07:00;;;;;;;4.65;3.08;;;;;;;10.59;61.15;99334.61;1755300;80;21148;-72
2022/02/08 08:09:27;;;;;;;5.03;3.45;;;;;;;10.59;61.07;99339.91;1738326;81;21006;-72
2022/02/08 08:11:54;;;;;;;4.53;3.20;;;;;;;10.59;61.00;99346.05;1754218;80;21061;-73
2022/02/08 08:14:24;;;;;;;5.17;3.50;;;;;;;10.60;60.97;99350.84;1751853;80;21022;-73
2022/02/08 08:16:59;;;;;;;4.87;3.37;;;;;;;10.61;60.91;99356.50;1730737;82;21101;-72
2022/02/08 08:19:24;;;;;;;5.28;3.30;;;;;;;10.61;60.83;99356.50;1739753;82;21569;-71
2022/02/08 08:21:47;;;;;;;5.45;3.37;;;;;;;10.61;60.78;99363.96;1731720;82;21045;-69
2022/02/08 08:24:14;;;;;;;5.22;3.20;;;;;;;10.62;60.70;99368.77;1701333;82;21052;-70
2022/02/08 08:26:41;;;;;;;5.50;3.20;;;;;;;10.62;60.97;99366.11;1714250;82;21092;-71
2022/02/08 08:29:07;;;;;;;5.90;3.75;;;;;;;10.67;60.86;99377.55;1695117;82;20989;-72
2022/02/08 08:31:34;;;;;;;7.92;3.85;;;;;;;10.71;62.03;99377.00;1737729;82;21098;-73
2022/02/08 08:34:01;;;;;;;8.35;4.12;;;;;;;10.74;63.13;99384.63;1728330;82;21528;-72
2022/02/08 08:36:29;;;;;;;8.43;4.55;;;;;;;10.77;63.79;99386.09;1738992;81;21049;-70
2022/02/08 08:38:55;;;;;;;7.03;4.10;;;;;;;10.79;64.03;99392.05;1752888;81;20982;-70
2022/02/08 08:51:53;;;;;;;9.68;4.47;;;;;;;10.85;63.63;99401.97;1742684;81;21046;-70
2022/02/08 08:54:20;;;;;;;7.37;4.10;;;;;;;10.86;63.47;99405.47;1750127;81;21011;-69
2022/02/08 08:56:49;;;;;;;6.83;3.30;;;;;;;10.88;63.30;99406.12;1743777;81;21128;-70
2022/02/08 08:59:15;;;;;;;6.90;4.22;;;;;;;10.89;63.14;99405.92;1746340;81;20994;-71
2022/02/08 09:01:43;;;;;;;7.45;4.17;;;;;;;10.91;62.97;99411.88;1736546;81;21040;-73
2022/02/08 09:04:09;;;;;;;8.55;3.25;;;;;;;10.91;62.81;99416.38;1740498;81;21064;-70
2022/02/08 09:06:36;;;;;;;7.62;3.67;;;;;;;10.92;62.64;99414.87;1752517;81;21038;-71
2022/02/08 09:09:09;;;;;;;7.65;3.25;;;;;;;10.95;62.49;99424.31;1753181;81;21892;-70
2022/02/08 09:12:23;;;;;;;7.05;3.67;;;;;;;10.96;62.32;99428.13;1753474;81;21032;-72
2022/02/08 09:29:46;;;;;;;5.47;3.62;;;;;;;11.02;61.35;99438.04;1751769;81;21551;-71
2022/02/08 09:32:15;;;;;;;5.90;3.22;;;;;;;11.02;61.23;99434.05;1747233;81;21074;-71
2022/02/08 09:34:43;;;;;;;5.60;3.87;;;;;;;11.02;61.14;99438.04;1731148;81;21149;-71
2022/02/08 09:37:15;;;;;;;6.15;3.40;;;;;;;11.03;61.00;99436.23;1736407;81;21124;-71
2022/02/08 09:39:43;;;;;;;7.05;3.77;;;;;;;11.03;60.92;99436.23;1729942;81;21050;-72
2022/02/08 09:42:09;;;;;;;4.65;2.95;;;;;;;11.03;60.82;99437.56;1731274;82;20999;-72
2022/02/08 09:44:37;;;;;;;5.33;3.35;;;;;;;11.05;60.71;99440.02;1702757;84;21050;-71
2022/02/08 09:47:12;;;;;;;4.92;3.00;;;;;;;11.06;60.61;99445.67;1731714;82;21145;-71
2022/02/08 09:49:41;;;;;;;5.50;2.95;;;;;;;11.07;60.54;99437.52;1739484;81;21632;-70
2022/02/08 09:52:06;;;;;;;4.35;3.00;;;;;;;11.07;60.44;99442.84;1727915;82;21002;-70
2022/02/08 09:54:33;;;;;;;4.95;3.35;;;;;;;11.07;60.36;99441.99;1740838;82;21058;-71
2022/02/08 09:57:00;;;;;;;5.12;3.08;;;;;;;11.07;60.27;99438.86;1732845;81;21097;-70
2022/02/08 09:59:26;;;;;;;4.92;3.05;;;;;;;11.07;60.18;99436.67;1699452;82;21145;-71
2022/02/08 10:01:57;;;;;;;4.40;2.77;;;;;;;11.08;60.10;99439.16;1724880;82;21109;-72
2022/02/08 10:04:24;;;;;;;4.35;3.30;;;;;;;11.09;60.00;99449.31;1741665;82;21161;-72
2022/02/08 10:06:54;;;;;;;4.22;3.20;;;;;;;11.09;59.93;99440.83;1742458;80;21466;-72
2022/02/08 10:09:31;;;;;;;4.58;2.90;;;;;;;11.08;59.84;99437.83;1724259;82;21023;-71
2022/02/08 10:11:58;;;;;;;5.15;2.87;;;;;;;11.09;59.79;99444.00;1736769;81;21098;-70
2022/02/08 10:22:31;;;;;;;5.35;2.70;;;;;;;11.08;59.48;99439.16;1722753;81;21086;-71
2022/02/08 10:25:06;;;;;;;4.75;3.37;;;;;;;11.07;59.41;99434.87;1734631;82;21133;-71
2022/02/08 10:30:42;;;;;;;4.72;2.60;;;;;;;11.07;59.31;99432.20;1729994;82;21248;-71
2022/02/08 10:38:18;;;;;;;4.20;2.58;;;;;;;11.05;59.12;99426.24;1696510;83;22308;-70
2022/02/08 10:40:45;;;;;;;4.45;2.60;;;;;;;11.05;59.09;99430.23;1703365;83;21077;-72
2022/02/08 10:43:18;;;;;;;4.55;3.22;;;;;;;11.06;59.03;99428.39;1701036;83;21127;-70
2022/02/08 10:45:44;;;;;;;4.25;2.60;;;;;;;11.06;58.99;99429.21;1725672;80;21501;-71
2022/02/08 10:48:22;;;;;;;3.37;2.45;;;;;;;11.07;58.95;99433.53;1747133;82;21578;-69
2022/02/08 10:52:46;;;;;;;4.15;3.10;;;;;;;11.13;58.87;99421.36;1842072;77;28217;-71
2022/02/08 11:00:38;;;;;;;3.20;2.52;;;;;;;11.13;58.69;99428.83;1823401;77;21580;-70
2022/02/08 11:03:00;;;;;;;3.95;2.40;;;;;;;11.13;58.61;99440.79;1834168;76;20986;-70
2022/02/08 11:05:41;;;;;;;3.98;2.67;;;;;;;11.14;58.57;99434.45;1822002;76;21552;-71
2022/02/08 11:15:57;;;;;;;3.80;2.47;;;;;;;11.15;58.35;99433.46;1797539;78;21108;-70
2022/02/08 11:21:23;;;;;;;3.75;2.65;;;;;;;11.16;58.25;99429.81;1801894;77;21001;-71
2022/02/08 11:23:47;;;;;;;4.17;2.80;;;;;;;11.17;58.19;99429.30;1779503;76;21548;-71
2022/02/08 11:26:03;;;;;;;3.60;2.47;;;;;;;11.17;58.13;99430.63;1820314;75;21006;-70
2022/02/08 11:28:44;;;;;;;3.72;2.33;;;;;;;11.16;58.12;99427.16;1828189;77;21061;-71
2022/02/08 11:31:19;;;;;;;2.92;2.45;;;;;;;11.17;58.07;99435.95;1821644;77;21081;-71
2022/02/08 11:48:41;;;;;;;3.83;2.30;;;;;;;11.15;57.83;99427.33;1829082;77;21537;-67
2022/02/08 11:51:07;;;;;;;3.12;2.25;;;;;;;11.16;57.78;99431.63;1826230;77;21150;-68
2022/02/08 11:53:28;;;;;;;2.92;2.22;;;;;;;11.15;57.76;99435.30;1830528;77;21005;-68
2022/02/08 12:02:04;;;;;;;2.92;2.27;;;;;;;11.14;57.67;99450.41;1838597;77;21417;-69
2022/02/08 12:09:30;;;;;;;2.50;1.92;;;;;;;11.13;57.57;99458.08;1818724;77;21081;-70
2022/02/08 12:12:29;;;;;;;3.47;1.95;;;;;;;11.13;57.54;99463.90;1823971;76;21524;-67
2022/02/08 12:31:27;;;;;;;2.77;2.30;;;;;;;11.12;57.33;99468.36;1814194;77;21121;-66
2022/02/08 12:50:17;;;;;;;3.15;2.10;;;;;;;11.04;57.07;99477.74;1799370;78;21623;-68
2022/02/08 12:57:51;;;;;;;2.55;2.22;;;;;;;11.09;57.00;99497.98;1816496;76;21530;-69
2022/02/08 13:32:18;;;;;;;2.67;2.08;;;;;;;11.10;56.64;99487.66;1808712;76;21196;-69
2022/02/08 14:08:37;;;;;;;2.27;1.80;;;;;;;11.04;56.23;99514.95;1825532;76;21088;-69
2022/02/08 14:16:28;;;;;;;3.62;2.00;;;;;;;11.03;56.19;99522.63;1822307;78;21040;-69
2022/02/08 14:24:20;;;;;;;2.95;2.15;;;;;;;11.02;56.08;99528.41;1819627;78;21506;-68
2022/02/08 14:32:07;;;;;;;1.95;1.70;;;;;;;11.00;56.02;99523.78;1822174;76;21124;-67
2022/02/08 14:34:56;;;;;;;3.12;2.15;;;;;;;11.00;55.98;99518.97;1826361;78;21016;-67
2022/02/08 14:37:15;;;;;;;2.30;1.72;;;;;;;11.00;55.96;99520.30;1818885;76;21525;-69
2022/02/08 15:07:04;;;;;;;2.22;1.92;;;;;;;10.91;55.71;99526.66;1790490;77;21038;-67
2022/02/08 15:09:22;;;;;;;2.35;1.87;;;;;;;10.91;55.69;99537.30;1802316;77;20996;-66
2022/02/08 15:12:10;;;;;;;2.50;1.65;;;;;;;10.89;55.69;99532.66;1826445;76;21721;-68
2022/02/08 15:14:28;;;;;;;1.80;1.70;;;;;;;10.88;55.68;99529.19;1827519;77;21092;-68
2022/02/08 15:16:55;;;;;;;2.55;2.02;;;;;;;10.88;55.64;99531.02;1828439;77;21055;-66
2022/02/08 15:19:21;;;;;;;2.70;1.85;;;;;;;10.87;55.63;99534.16;1834984;77;21111;-68
2022/02/08 15:21:48;;;;;;;3.20;1.85;;;;;;;10.88;55.61;99529.70;1839549;76;21093;-69
2022/02/08 15:24:14;;;;;;;3.00;1.90;;;;;;;10.86;55.60;99528.53;1834123;76;21184;-67
2022/02/08 15:26:47;;;;;;;3.25;1.95;;;;;;;10.87;55.57;99529.35;1832458;77;21107;-70
2022/02/08 15:29:12;;;;;;;3.00;1.80;;;;;;;10.86;55.54;99530.38;1839423;77;21041;-70
2022/02/08 15:31:39;;;;;;;2.80;1.80;;;;;;;10.86;55.51;99537.02;1833362;76;21084;-69
2022/02/08 15:34:05;;;;;;;3.00;1.82;;;;;;;10.85;55.49;99539.33;1808485;76;21009;-68
2022/02/08 15:36:32;;;;;;;2.80;2.22;;;;;;;10.85;55.49;99534.84;1820688;76;21206;-70
2022/02/08 15:39:06;;;;;;;2.55;2.00;;;;;;;10.85;55.45;99535.34;1829100;76;21026;-69
2022/02/08 15:41:28;;;;;;;3.30;2.10;;;;;;;10.84;55.43;99542.50;1824227;76;21053;-70
2022/02/08 15:43:55;;;;;;;2.75;2.05;;;;;;;10.84;55.42;99543.83;1814122;76;21100;-70
2022/02/08 15:46:25;;;;;;;2.05;1.77;;;;;;;10.84;55.41;99539.84;1831945;76;21116;-70
2022/02/08 15:48:52;;;;;;;2.08;1.57;;;;;;;10.84;55.37;99543.01;1830622;76;21454;-70
2022/02/08 16:07:07;;;;;;;2.37;2.05;;;;;;;10.77;55.29;99545.01;1824412;76;21033;-70
2022/02/08 16:09:39;;;;;;;2.72;1.95;;;;;;;10.77;55.29;99544.19;1826951;76;21579;-69
2022/02/08 16:17:14;;;;;;;2.55;2.00;;;;;;;10.74;55.26;99540.54;1808471;77;21037;-70
2022/02/08 16:46:06;;;;;;;6.37;3.40;;;;;;;10.71;55.23;99525.78;1825271;78;21058;-66
2022/02/08 16:46:10;;;;;;;4.17;2.08;;;;;;;10.68;57.91;99531.47;1797306;79;21043;-66
2022/02/08 16:59:37;;;;;;;4.22;2.55;;;;;;;10.66;57.45;99544.06;1834857;78;21006;-65
2022/02/08 17:02:02;;;;;;;3.98;2.27;;;;;;;10.64;57.37;99542.08;1811791;76;21076;-65
2022/02/08 17:04:27;;;;;;;4.08;2.55;;;;;;;10.65;57.25;99542.42;1828411;78;21044;-67
2022/02/08 17:06:53;;;;;;;3.30;2.22;;;;;;;10.64;57.17;99542.08;1833883;78;21147;-66
2022/02/08 17:09:32;;;;;;;2.75;2.22;;;;;;;10.62;57.09;99547.59;1843403;76;21025;-66
2022/02/08 17:12:03;;;;;;;4.00;2.27;;;;;;;10.62;57.01;99552.05;1800863;78;21117;-66
2022/02/08 17:14:37;;;;;;;3.42;2.58;;;;;;;10.62;56.90;99554.23;1807305;76;21006;-66
2022/02/08 17:17:07;;;;;;;3.15;2.20;;;;;;;10.62;56.83;99556.89;1801410;76;21115;-65
2022/02/08 17:46:24;;;;;;;4.95;2.25;;;;;;;10.55;56.20;99552.44;1768303;78;21093;-66
2022/02/08 17:48:50;;;;;;;3.35;2.40;;;;;;;10.53;56.17;99547.30;1802974;78;21054;-66
2022/02/08 17:51:16;;;;;;;3.33;2.30;;;;;;;10.53;56.12;99549.13;1793925;78;21089;-66
2022/02/08 17:53:42;;;;;;;3.58;2.55;;;;;;;10.52;56.08;99550.12;1803297;77;21592;-65
2022/02/08 17:56:10;;;;;;;4.80;2.77;;;;;;;10.52;56.07;99552.27;1808877;77;21103;-66
2022/02/08 17:58:38;;;;;;;3.55;2.70;;;;;;;10.52;56.01;99552.27;1791974;78;21041;-65
2022/02/08 18:01:05;;;;;;;4.12;2.65;;;;;;;10.52;55.97;99553.59;1767517;78;21009;-65
2022/02/08 18:03:31;;;;;;;4.45;3.10;;;;;;;10.52;55.95;99550.12;1788137;80;21006;-65
2022/02/08 18:05:57;;;;;;;3.12;2.55;;;;;;;10.53;55.90;99548.63;1767969;80;20993;-65
2022/02/08 18:08:25;;;;;;;3.62;2.33;;;;;;;10.52;55.85;99548.28;1785980;78;21519;-66
2022/02/08 18:10:56;;;;;;;3.10;2.37;;;;;;;10.52;55.84;99539.49;1806944;77;21783;-65
2022/02/08 18:13:20;;;;;;;4.35;2.33;;;;;;;10.52;55.79;99540.82;1826325;78;21069;-68
2022/02/08 18:15:48;;;;;;;3.52;2.67;;;;;;;10.52;55.78;99535.51;1825271;78;21014;-66
2022/02/08 18:18:24;;;;;;;4.72;3.05;;;;;;;10.51;56.29;99530.70;1802425;77;21101;-66
2022/02/08 18:20:51;;;;;;;4.35;2.37;;;;;;;10.51;56.59;99540.00;1793292;80;21053;-67
2022/02/08 18:23:34;;;;;;;3.95;2.67;;;;;;;10.51;56.63;99536.02;1806433;77;21260;-66
2022/02/08 19:18:56;;;;;;;7.70;4.58;;;;;;;10.66;62.41;99448.42;1793019;78;21041;-69
2022/02/08 19:21:31;;;;;;;6.37;3.92;;;;;;;10.74;63.49;99442.23;1769480;78;21032;-69
2022/02/08 19:23:37;;;;;;;7.37;3.60;;;;;;;10.81;64.39;99437.36;1775489;78;20988;-69
2022/02/08 19:26:06;;;;;;;6.30;3.80;;;;;;;10.90;65.44;99426.19;1799294;78;21028;-68